Adrian, Pennsylvania
Current Conditions -  °F | °C
As of 9:35 PM on Friday 31 Oct 2014 (Local Time) from KBTP Reporting Station
Overcast Overcast  
Wind Chill: 36°   Ceiling: 2900
Heat Index: 39°   Visibility: 5mi
Dew Point: 37°   Wind: 5mph
Humidity: 93%   Direction: 60°ENE
Pressure: 29.91"   Gusts: NA
Location:  40.88°N, 79.54°W
Report Text: KBTP 010135Z AUTO 06004KT 5SM OVC029 04/03 A2991 RMK AO1 P0001
Loading
Personal Weather Stations






























Interactive Weather Map
Tropical Storm Tracking
New forecast layout! Learn more

10-Day Weather Forecast

Advertisements
Track Severe Weather on mobile